sensor_id;sensor_type;location;lat;lon;timestamp;P1;durP1;ratioP1;P2;durP2;ratioP2
20865;SDS011;10593;48.398;10.698;2022-07-29T00:00:01;1.70;;;1.60;;
20865;SDS011;10593;48.398;10.698;2022-07-29T00:02:32;2.07;;;1.97;;
20865;SDS011;10593;48.398;10.698;2022-07-29T00:04:58;1.47;;;1.37;;
20865;SDS011;10593;48.398;10.698;2022-07-29T00:07:24;1.50;;;1.40;;
20865;SDS011;10593;48.398;10.698;2022-07-29T00:09:50;1.93;;;1.53;;
20865;SDS011;10593;48.398;10.698;2022-07-29T00:12:16;1.33;;;1.30;;
20865;SDS011;10593;48.398;10.698;2022-07-29T00:14:42;1.53;;;1.33;;
20865;SDS011;10593;48.398;10.698;2022-07-29T00:17:07;4.07;;;1.50;;
20865;SDS011;10593;48.398;10.698;2022-07-29T00:19:33;1.40;;;1.30;;
20865;SDS011;10593;48.398;10.698;2022-07-29T00:21:59;1.37;;;1.27;;
20865;SDS011;10593;48.398;10.698;2022-07-29T00:24:26;3.20;;;1.50;;
20865;SDS011;10593;48.398;10.698;2022-07-29T00:26:52;1.60;;;1.50;;
20865;SDS011;10593;48.398;10.698;2022-07-29T00:29:18;1.83;;;1.60;;
20865;SDS011;10593;48.398;10.698;2022-07-29T00:31:43;3.20;;;1.87;;
20865;SDS011;10593;48.398;10.698;2022-07-29T00:34:09;1.70;;;1.60;;
20865;SDS011;10593;48.398;10.698;2022-07-29T00:36:55;1.70;;;1.60;;
20865;SDS011;10593;48.398;10.698;2022-07-29T00:39:22;1.70;;;1.60;;
20865;SDS011;10593;48.398;10.698;2022-07-29T00:41:48;1.60;;;1.50;;
20865;SDS011;10593;48.398;10.698;2022-07-29T00:44:14;2.00;;;1.90;;
20865;SDS011;10593;48.398;10.698;2022-07-29T00:46:40;2.27;;;1.90;;
20865;SDS011;10593;48.398;10.698;2022-07-29T00:49:06;1.90;;;1.70;;
20865;SDS011;10593;48.398;10.698;2022-07-29T00:51:34;2.00;;;1.90;;
20865;SDS011;10593;48.398;10.698;2022-07-29T00:54:02;2.20;;;1.60;;
20865;SDS011;10593;48.398;10.698;2022-07-29T00:56:32;2.00;;;1.90;;
20865;SDS011;10593;48.398;10.698;2022-07-29T00:58:59;2.50;;;1.80;;
20865;SDS011;10593;48.398;10.698;2022-07-29T01:01:25;1.93;;;1.67;;
20865;SDS011;10593;48.398;10.698;2022-07-29T01:03:52;1.67;;;1.57;;
20865;SDS011;10593;48.398;10.698;2022-07-29T01:06:18;5.77;;;1.80;;
20865;SDS011;10593;48.398;10.698;2022-07-29T01:08:45;2.73;;;2.03;;
20865;SDS011;10593;48.398;10.698;2022-07-29T01:11:14;1.93;;;1.80;;
20865;SDS011;10593;48.398;10.698;2022-07-29T01:13:42;6.00;;;2.60;;
20865;SDS011;10593;48.398;10.698;2022-07-29T01:16:13;2.27;;;1.70;;
20865;SDS011;10593;48.398;10.698;2022-07-29T01:18:51;2.67;;;1.83;;
20865;SDS011;10593;48.398;10.698;2022-07-29T01:21:50;3.23;;;1.83;;
20865;SDS011;10593;48.398;10.698;2022-07-29T01:30:34;1.67;;;1.57;;
20865;SDS011;10593;48.398;10.698;2022-07-29T01:33:05;1.77;;;1.67;;
20865;SDS011;10593;48.398;10.698;2022-07-29T01:35:36;1.83;;;1.73;;
20865;SDS011;10593;48.398;10.698;2022-07-29T01:38:12;1.70;;;1.60;;
20865;SDS011;10593;48.398;10.698;2022-07-29T01:40:46;1.80;;;1.70;;
20865;SDS011;10593;48.398;10.698;2022-07-29T01:43:27;1.97;;;1.87;;
20865;SDS011;10593;48.398;10.698;2022-07-29T01:46:09;2.47;;;2.27;;
20865;SDS011;10593;48.398;10.698;2022-07-29T01:48:46;2.20;;;2.00;;
20865;SDS011;10593;48.398;10.698;2022-07-29T01:51:29;1.90;;;1.80;;
20865;SDS011;10593;48.398;10.698;2022-07-29T01:57:02;2.47;;;2.20;;
20865;SDS011;10593;48.398;10.698;2022-07-29T01:59:31;2.00;;;1.90;;
20865;SDS011;10593;48.398;10.698;2022-07-29T02:02:00;2.83;;;2.13;;
20865;SDS011;10593;48.398;10.698;2022-07-29T02:04:27;2.43;;;2.30;;
20865;SDS011;10593;48.398;10.698;2022-07-29T02:06:55;2.37;;;2.17;;
20865;SDS011;10593;48.398;10.698;2022-07-29T02:09:27;2.30;;;2.10;;
20865;SDS011;10593;48.398;10.698;2022-07-29T02:11:56;2.67;;;2.50;;
20865;SDS011;10593;48.398;10.698;2022-07-29T02:14:26;2.13;;;2.03;;
20865;SDS011;10593;48.398;10.698;2022-07-29T02:16:58;2.50;;;2.30;;
20865;SDS011;10593;48.398;10.698;2022-07-29T02:19:27;2.97;;;2.77;;
20865;SDS011;10593;48.398;10.698;2022-07-29T02:21:55;2.53;;;2.33;;
20865;SDS011;10593;48.398;10.698;2022-07-29T02:24:23;3.10;;;2.47;;
20865;SDS011;10593;48.398;10.698;2022-07-29T02:26:52;2.80;;;2.57;;
20865;SDS011;10593;48.398;10.698;2022-07-29T02:29:22;3.47;;;2.53;;
20865;SDS011;10593;48.398;10.698;2022-07-29T02:31:50;2.70;;;2.50;;
20865;SDS011;10593;48.398;10.698;2022-07-29T02:34:19;2.80;;;2.60;;
20865;SDS011;10593;48.398;10.698;2022-07-29T02:36:46;2.67;;;2.47;;
20865;SDS011;10593;48.398;10.698;2022-07-29T02:39:14;2.80;;;2.27;;
20865;SDS011;10593;48.398;10.698;2022-07-29T02:41:52;2.60;;;2.40;;
20865;SDS011;10593;48.398;10.698;2022-07-29T02:44:24;2.50;;;2.40;;
20865;SDS011;10593;48.398;10.698;2022-07-29T02:49:57;2.77;;;2.57;;
20865;SDS011;10593;48.398;10.698;2022-07-29T02:52:57;2.70;;;2.50;;
20865;SDS011;10593;48.398;10.698;2022-07-29T02:55:32;2.40;;;2.30;;
20865;SDS011;10593;48.398;10.698;2022-07-29T02:58:15;2.73;;;2.50;;
20865;SDS011;10593;48.398;10.698;2022-07-29T03:01:04;2.40;;;2.30;;
20865;SDS011;10593;48.398;10.698;2022-07-29T03:03:38;2.50;;;2.30;;
20865;SDS011;10593;48.398;10.698;2022-07-29T03:06:07;2.40;;;2.20;;
20865;SDS011;10593;48.398;10.698;2022-07-29T03:08:35;2.33;;;2.23;;
20865;SDS011;10593;48.398;10.698;2022-07-29T03:11:01;2.83;;;2.40;;
20865;SDS011;10593;48.398;10.698;2022-07-29T03:13:29;2.93;;;2.60;;
20865;SDS011;10593;48.398;10.698;2022-07-29T03:15:56;2.20;;;2.10;;
20865;SDS011;10593;48.398;10.698;2022-07-29T03:18:23;3.27;;;2.97;;
20865;SDS011;10593;48.398;10.698;2022-07-29T03:20:50;2.90;;;2.33;;
20865;SDS011;10593;48.398;10.698;2022-07-29T03:23:20;2.37;;;2.27;;
20865;SDS011;10593;48.398;10.698;2022-07-29T03:25:49;3.10;;;2.80;;
20865;SDS011;10593;48.398;10.698;2022-07-29T03:28:15;2.57;;;2.47;;
20865;SDS011;10593;48.398;10.698;2022-07-29T03:30:41;2.47;;;2.37;;
20865;SDS011;10593;48.398;10.698;2022-07-29T03:33:07;2.67;;;2.47;;
20865;SDS011;10593;48.398;10.698;2022-07-29T03:35:32;2.50;;;2.40;;
20865;SDS011;10593;48.398;10.698;2022-07-29T03:37:58;3.83;;;2.40;;
20865;SDS011;10593;48.398;10.698;2022-07-29T03:40:25;2.53;;;2.37;;
20865;SDS011;10593;48.398;10.698;2022-07-29T03:43:11;2.53;;;2.33;;
20865;SDS011;10593;48.398;10.698;2022-07-29T03:45:42;2.50;;;2.40;;
20865;SDS011;10593;48.398;10.698;2022-07-29T03:48:15;2.50;;;2.30;;
20865;SDS011;10593;48.398;10.698;2022-07-29T03:50:45;3.13;;;2.30;;
20865;SDS011;10593;48.398;10.698;2022-07-29T03:53:11;2.90;;;2.40;;
20865;SDS011;10593;48.398;10.698;2022-07-29T03:55:43;2.90;;;2.47;;
20865;SDS011;10593;48.398;10.698;2022-07-29T03:58:13;2.33;;;2.13;;
20865;SDS011;10593;48.398;10.698;2022-07-29T04:00:41;2.53;;;2.43;;
20865;SDS011;10593;48.398;10.698;2022-07-29T04:03:08;3.27;;;2.50;;
20865;SDS011;10593;48.398;10.698;2022-07-29T04:05:35;2.70;;;2.50;;
20865;SDS011;10593;48.398;10.698;2022-07-29T04:08:01;2.50;;;2.30;;
20865;SDS011;10593;48.398;10.698;2022-07-29T04:10:26;2.20;;;2.00;;
20865;SDS011;10593;48.398;10.698;2022-07-29T04:12:52;2.60;;;2.40;;
20865;SDS011;10593;48.398;10.698;2022-07-29T04:15:18;2.60;;;2.40;;
20865;SDS011;10593;48.398;10.698;2022-07-29T04:17:44;2.70;;;2.50;;
20865;SDS011;10593;48.398;10.698;2022-07-29T04:20:10;3.10;;;2.20;;
20865;SDS011;10593;48.398;10.698;2022-07-29T04:22:39;2.47;;;2.03;;
20865;SDS011;10593;48.398;10.698;2022-07-29T04:25:05;2.40;;;2.30;;
20865;SDS011;10593;48.398;10.698;2022-07-29T04:27:31;2.80;;;2.40;;
20865;SDS011;10593;48.398;10.698;2022-07-29T04:29:57;2.63;;;2.20;;
20865;SDS011;10593;48.398;10.698;2022-07-29T04:32:23;3.57;;;2.40;;
20865;SDS011;10593;48.398;10.698;2022-07-29T04:34:50;1.90;;;1.80;;
20865;SDS011;10593;48.398;10.698;2022-07-29T04:37:16;2.60;;;2.40;;
20865;SDS011;10593;48.398;10.698;2022-07-29T04:39:41;2.60;;;2.40;;
20865;SDS011;10593;48.398;10.698;2022-07-29T04:42:07;2.50;;;2.30;;
20865;SDS011;10593;48.398;10.698;2022-07-29T04:44:33;2.70;;;2.50;;
20865;SDS011;10593;48.398;10.698;2022-07-29T04:46:58;2.03;;;1.93;;
20865;SDS011;10593;48.398;10.698;2022-07-29T04:49:24;3.53;;;2.50;;
20865;SDS011;10593;48.398;10.698;2022-07-29T04:51:50;2.60;;;2.40;;
20865;SDS011;10593;48.398;10.698;2022-07-29T04:54:15;3.03;;;2.83;;
20865;SDS011;10593;48.398;10.698;2022-07-29T04:56:41;3.83;;;3.53;;
20865;SDS011;10593;48.398;10.698;2022-07-29T04:59:07;4.10;;;3.80;;
20865;SDS011;10593;48.398;10.698;2022-07-29T05:01:32;6.37;;;5.77;;
20865;SDS011;10593;48.398;10.698;2022-07-29T05:03:58;7.20;;;6.60;;
20865;SDS011;10593;48.398;10.698;2022-07-29T05:06:24;7.70;;;7.10;;
20865;SDS011;10593;48.398;10.698;2022-07-29T05:08:49;8.00;;;7.37;;
20865;SDS011;10593;48.398;10.698;2022-07-29T05:11:15;7.20;;;6.60;;
20865;SDS011;10593;48.398;10.698;2022-07-29T05:13:41;7.07;;;6.47;;
20865;SDS011;10593;48.398;10.698;2022-07-29T05:16:07;6.10;;;5.60;;
20865;SDS011;10593;48.398;10.698;2022-07-29T05:18:33;6.07;;;5.57;;
20865;SDS011;10593;48.398;10.698;2022-07-29T05:20:59;7.90;;;5.20;;
20865;SDS011;10593;48.398;10.698;2022-07-29T05:23:24;4.93;;;4.53;;
20865;SDS011;10593;48.398;10.698;2022-07-29T05:25:50;5.10;;;4.70;;
20865;SDS011;10593;48.398;10.698;2022-07-29T05:28:16;4.53;;;4.20;;
20865;SDS011;10593;48.398;10.698;2022-07-29T05:30:42;4.80;;;4.50;;
20865;SDS011;10593;48.398;10.698;2022-07-29T05:33:09;4.50;;;4.03;;
20865;SDS011;10593;48.398;10.698;2022-07-29T05:35:35;4.13;;;3.83;;
20865;SDS011;10593;48.398;10.698;2022-07-29T05:38:02;3.93;;;3.60;;
20865;SDS011;10593;48.398;10.698;2022-07-29T05:40:28;4.70;;;3.83;;
20865;SDS011;10593;48.398;10.698;2022-07-29T05:42:55;4.50;;;4.07;;
20865;SDS011;10593;48.398;10.698;2022-07-29T05:45:21;4.17;;;3.77;;
20865;SDS011;10593;48.398;10.698;2022-07-29T05:47:46;4.50;;;4.10;;
20865;SDS011;10593;48.398;10.698;2022-07-29T05:50:12;4.10;;;3.80;;
20865;SDS011;10593;48.398;10.698;2022-07-29T05:52:38;4.20;;;3.90;;
20865;SDS011;10593;48.398;10.698;2022-07-29T05:55:04;4.43;;;4.13;;
20865;SDS011;10593;48.398;10.698;2022-07-29T05:57:30;4.07;;;3.77;;
20865;SDS011;10593;48.398;10.698;2022-07-29T05:59:57;3.53;;;3.33;;
20865;SDS011;10593;48.398;10.698;2022-07-29T06:02:22;4.00;;;3.70;;
20865;SDS011;10593;48.398;10.698;2022-07-29T06:04:48;4.23;;;3.93;;
20865;SDS011;10593;48.398;10.698;2022-07-29T06:07:14;4.50;;;4.20;;
20865;SDS011;10593;48.398;10.698;2022-07-29T06:09:41;4.77;;;4.47;;
20865;SDS011;10593;48.398;10.698;2022-07-29T06:12:07;4.37;;;3.97;;
20865;SDS011;10593;48.398;10.698;2022-07-29T06:14:33;4.20;;;3.90;;
20865;SDS011;10593;48.398;10.698;2022-07-29T06:17:00;4.10;;;3.90;;
20865;SDS011;10593;48.398;10.698;2022-07-29T06:19:26;3.93;;;3.73;;
20865;SDS011;10593;48.398;10.698;2022-07-29T06:21:51;4.40;;;4.10;;
20865;SDS011;10593;48.398;10.698;2022-07-29T06:24:17;4.10;;;3.80;;
20865;SDS011;10593;48.398;10.698;2022-07-29T06:26:43;4.33;;;3.93;;
20865;SDS011;10593;48.398;10.698;2022-07-29T06:29:09;4.10;;;3.77;;
20865;SDS011;10593;48.398;10.698;2022-07-29T06:31:35;4.70;;;4.30;;
20865;SDS011;10593;48.398;10.698;2022-07-29T06:34:02;4.60;;;4.30;;
20865;SDS011;10593;48.398;10.698;2022-07-29T06:36:28;4.80;;;4.40;;
20865;SDS011;10593;48.398;10.698;2022-07-29T06:38:54;4.57;;;4.17;;
20865;SDS011;10593;48.398;10.698;2022-07-29T06:41:20;4.40;;;4.10;;
20865;SDS011;10593;48.398;10.698;2022-07-29T06:43:46;4.00;;;3.70;;
20865;SDS011;10593;48.398;10.698;2022-07-29T06:46:13;4.00;;;3.70;;
20865;SDS011;10593;48.398;10.698;2022-07-29T06:48:42;4.17;;;3.90;;
20865;SDS011;10593;48.398;10.698;2022-07-29T06:51:10;3.93;;;3.73;;
20865;SDS011;10593;48.398;10.698;2022-07-29T06:53:38;4.40;;;4.00;;
20865;SDS011;10593;48.398;10.698;2022-07-29T06:56:04;4.10;;;3.80;;
20865;SDS011;10593;48.398;10.698;2022-07-29T06:58:33;4.20;;;3.90;;
20865;SDS011;10593;48.398;10.698;2022-07-29T07:01:01;4.90;;;4.40;;
20865;SDS011;10593;48.398;10.698;2022-07-29T07:03:28;4.27;;;3.93;;
20865;SDS011;10593;48.398;10.698;2022-07-29T07:05:54;3.40;;;3.10;;
20865;SDS011;10593;48.398;10.698;2022-07-29T07:08:20;3.60;;;3.40;;
20865;SDS011;10593;48.398;10.698;2022-07-29T07:10:47;3.57;;;3.27;;
20865;SDS011;10593;48.398;10.698;2022-07-29T07:13:13;3.17;;;2.90;;
20865;SDS011;10593;48.398;10.698;2022-07-29T07:15:39;3.23;;;3.00;;
20865;SDS011;10593;48.398;10.698;2022-07-29T07:18:05;3.30;;;3.10;;
20865;SDS011;10593;48.398;10.698;2022-07-29T07:20:32;3.67;;;3.47;;
20865;SDS011;10593;48.398;10.698;2022-07-29T07:22:59;4.43;;;4.00;;
20865;SDS011;10593;48.398;10.698;2022-07-29T07:25:25;3.63;;;3.33;;
20865;SDS011;10593;48.398;10.698;2022-07-29T07:27:51;3.80;;;3.50;;
20865;SDS011;10593;48.398;10.698;2022-07-29T07:30:17;3.17;;;2.97;;
20865;SDS011;10593;48.398;10.698;2022-07-29T07:32:43;3.40;;;3.17;;
20865;SDS011;10593;48.398;10.698;2022-07-29T07:35:08;3.37;;;3.07;;
20865;SDS011;10593;48.398;10.698;2022-07-29T07:37:36;3.10;;;2.80;;
20865;SDS011;10593;48.398;10.698;2022-07-29T07:40:03;2.90;;;2.70;;
20865;SDS011;10593;48.398;10.698;2022-07-29T07:42:30;2.50;;;2.40;;
20865;SDS011;10593;48.398;10.698;2022-07-29T07:44:55;3.10;;;2.90;;
20865;SDS011;10593;48.398;10.698;2022-07-29T07:47:21;3.60;;;2.70;;
20865;SDS011;10593;48.398;10.698;2022-07-29T07:49:48;2.40;;;2.30;;
20865;SDS011;10593;48.398;10.698;2022-07-29T07:52:16;2.33;;;2.20;;
20865;SDS011;10593;48.398;10.698;2022-07-29T07:54:43;2.40;;;2.20;;
20865;SDS011;10593;48.398;10.698;2022-07-29T07:57:09;2.17;;;2.07;;
20865;SDS011;10593;48.398;10.698;2022-07-29T07:59:36;2.50;;;2.40;;
20865;SDS011;10593;48.398;10.698;2022-07-29T08:02:02;2.40;;;2.20;;
20865;SDS011;10593;48.398;10.698;2022-07-29T08:04:28;2.63;;;2.40;;
20865;SDS011;10593;48.398;10.698;2022-07-29T08:06:55;2.87;;;2.37;;
20865;SDS011;10593;48.398;10.698;2022-07-29T08:09:23;2.80;;;2.60;;
20865;SDS011;10593;48.398;10.698;2022-07-29T08:11:50;2.70;;;2.50;;
20865;SDS011;10593;48.398;10.698;2022-07-29T08:14:16;2.20;;;2.10;;
20865;SDS011;10593;48.398;10.698;2022-07-29T08:16:42;2.07;;;1.97;;
20865;SDS011;10593;48.398;10.698;2022-07-29T08:19:08;2.07;;;1.97;;
20865;SDS011;10593;48.398;10.698;2022-07-29T08:21:34;2.00;;;1.83;;
20865;SDS011;10593;48.398;10.698;2022-07-29T08:24:00;2.20;;;2.03;;
20865;SDS011;10593;48.398;10.698;2022-07-29T08:26:45;2.50;;;2.20;;
20865;SDS011;10593;48.398;10.698;2022-07-29T08:29:11;2.47;;;2.27;;
20865;SDS011;10593;48.398;10.698;2022-07-29T08:31:37;2.47;;;2.27;;
20865;SDS011;10593;48.398;10.698;2022-07-29T08:34:04;2.13;;;1.90;;
20865;SDS011;10593;48.398;10.698;2022-07-29T08:36:31;2.40;;;1.80;;
20865;SDS011;10593;48.398;10.698;2022-07-29T08:38:58;2.33;;;2.13;;
20865;SDS011;10593;48.398;10.698;2022-07-29T08:41:25;2.23;;;2.00;;
20865;SDS011;10593;48.398;10.698;2022-07-29T08:43:51;2.30;;;2.10;;
20865;SDS011;10593;48.398;10.698;2022-07-29T08:46:18;2.33;;;2.23;;
20865;SDS011;10593;48.398;10.698;2022-07-29T08:48:46;2.33;;;2.20;;
20865;SDS011;10593;48.398;10.698;2022-07-29T08:51:22;2.10;;;2.00;;
20865;SDS011;10593;48.398;10.698;2022-07-29T08:53:50;2.07;;;1.97;;
20865;SDS011;10593;48.398;10.698;2022-07-29T08:56:16;2.03;;;1.93;;
20865;SDS011;10593;48.398;10.698;2022-07-29T08:58:44;2.53;;;2.30;;
20865;SDS011;10593;48.398;10.698;2022-07-29T09:01:12;2.37;;;2.23;;
20865;SDS011;10593;48.398;10.698;2022-07-29T09:03:42;2.30;;;2.10;;
20865;SDS011;10593;48.398;10.698;2022-07-29T09:06:12;2.23;;;2.10;;
20865;SDS011;10593;48.398;10.698;2022-07-29T09:08:40;2.10;;;2.00;;
20865;SDS011;10593;48.398;10.698;2022-07-29T09:11:06;2.10;;;2.00;;
20865;SDS011;10593;48.398;10.698;2022-07-29T09:13:32;2.27;;;2.17;;
20865;SDS011;10593;48.398;10.698;2022-07-29T09:15:59;2.40;;;2.20;;
20865;SDS011;10593;48.398;10.698;2022-07-29T09:18:32;1.90;;;1.80;;
20865;SDS011;10593;48.398;10.698;2022-07-29T09:21:10;2.23;;;2.10;;
20865;SDS011;10593;48.398;10.698;2022-07-29T09:23:59;4.47;;;2.23;;
20865;SDS011;10593;48.398;10.698;2022-07-29T09:26:40;2.20;;;2.10;;
20865;SDS011;10593;48.398;10.698;2022-07-29T09:29:10;1.90;;;1.80;;
20865;SDS011;10593;48.398;10.698;2022-07-29T09:31:41;2.50;;;2.30;;
20865;SDS011;10593;48.398;10.698;2022-07-29T09:34:13;2.43;;;2.23;;
20865;SDS011;10593;48.398;10.698;2022-07-29T09:36:46;2.30;;;2.10;;
20865;SDS011;10593;48.398;10.698;2022-07-29T09:39:14;2.33;;;2.10;;
20865;SDS011;10593;48.398;10.698;2022-07-29T09:41:53;2.10;;;2.00;;
20865;SDS011;10593;48.398;10.698;2022-07-29T09:44:22;2.50;;;2.30;;
20865;SDS011;10593;48.398;10.698;2022-07-29T09:49:31;2.70;;;2.50;;
20865;SDS011;10593;48.398;10.698;2022-07-29T09:52:06;2.37;;;2.17;;
20865;SDS011;10593;48.398;10.698;2022-07-29T09:54:34;2.20;;;2.00;;
20865;SDS011;10593;48.398;10.698;2022-07-29T09:57:07;2.10;;;1.93;;
20865;SDS011;10593;48.398;10.698;2022-07-29T09:59:55;2.30;;;2.20;;
20865;SDS011;10593;48.398;10.698;2022-07-29T10:02:42;3.73;;;2.63;;
20865;SDS011;10593;48.398;10.698;2022-07-29T10:07:52;2.70;;;2.50;;
20865;SDS011;10593;48.398;10.698;2022-07-29T10:10:22;2.30;;;2.20;;
20865;SDS011;10593;48.398;10.698;2022-07-29T10:13:01;2.73;;;2.40;;
20865;SDS011;10593;48.398;10.698;2022-07-29T10:15:30;2.60;;;2.40;;
20865;SDS011;10593;48.398;10.698;2022-07-29T10:17:59;2.03;;;1.93;;
20865;SDS011;10593;48.398;10.698;2022-07-29T10:20:26;3.10;;;2.30;;
20865;SDS011;10593;48.398;10.698;2022-07-29T10:22:53;2.13;;;1.97;;
20865;SDS011;10593;48.398;10.698;2022-07-29T10:25:20;2.10;;;2.00;;
20865;SDS011;10593;48.398;10.698;2022-07-29T10:27:47;2.47;;;2.27;;
20865;SDS011;10593;48.398;10.698;2022-07-29T10:30:16;2.03;;;1.93;;
20865;SDS011;10593;48.398;10.698;2022-07-29T10:42:14;2.60;;;2.40;;
20865;SDS011;10593;48.398;10.698;2022-07-29T10:44:49;2.13;;;2.03;;
20865;SDS011;10593;48.398;10.698;2022-07-29T10:47:26;2.87;;;2.20;;
20865;SDS011;10593;48.398;10.698;2022-07-29T10:52:23;2.60;;;2.40;;
20865;SDS011;10593;48.398;10.698;2022-07-29T10:54:52;1.87;;;1.77;;
20865;SDS011;10593;48.398;10.698;2022-07-29T10:57:20;2.47;;;2.13;;
20865;SDS011;10593;48.398;10.698;2022-07-29T11:10:48;2.30;;;2.10;;
20865;SDS011;10593;48.398;10.698;2022-07-29T11:16:06;1.93;;;1.83;;
20865;SDS011;10593;48.398;10.698;2022-07-29T11:18:32;4.60;;;2.10;;
20865;SDS011;10593;48.398;10.698;2022-07-29T11:20:58;1.80;;;1.70;;
20865;SDS011;10593;48.398;10.698;2022-07-29T11:23:28;1.90;;;1.80;;
20865;SDS011;10593;48.398;10.698;2022-07-29T11:31:30;1.70;;;1.60;;
20865;SDS011;10593;48.398;10.698;2022-07-29T11:39:32;1.70;;;1.60;;
20865;SDS011;10593;48.398;10.698;2022-07-29T11:47:38;2.40;;;2.20;;
20865;SDS011;10593;48.398;10.698;2022-07-29T11:50:42;2.20;;;1.67;;
20865;SDS011;10593;48.398;10.698;2022-07-29T11:53:13;2.40;;;1.60;;
20865;SDS011;10593;48.398;10.698;2022-07-29T11:55:40;1.87;;;1.77;;
20865;SDS011;10593;48.398;10.698;2022-07-29T11:58:06;1.97;;;1.60;;
20865;SDS011;10593;48.398;10.698;2022-07-29T12:00:34;1.60;;;1.50;;
20865;SDS011;10593;48.398;10.698;2022-07-29T12:03:04;1.83;;;1.73;;
20865;SDS011;10593;48.398;10.698;2022-07-29T12:05:34;1.90;;;1.80;;
20865;SDS011;10593;48.398;10.698;2022-07-29T12:08:05;1.93;;;1.77;;
20865;SDS011;10593;48.398;10.698;2022-07-29T12:10:37;1.83;;;1.73;;
20865;SDS011;10593;48.398;10.698;2022-07-29T12:13:03;2.77;;;1.90;;
20865;SDS011;10593;48.398;10.698;2022-07-29T12:15:29;1.80;;;1.70;;
20865;SDS011;10593;48.398;10.698;2022-07-29T12:17:55;1.80;;;1.63;;
20865;SDS011;10593;48.398;10.698;2022-07-29T12:20:22;1.70;;;1.57;;
20865;SDS011;10593;48.398;10.698;2022-07-29T12:22:53;1.97;;;1.60;;
20865;SDS011;10593;48.398;10.698;2022-07-29T12:25:22;1.70;;;1.60;;
20865;SDS011;10593;48.398;10.698;2022-07-29T12:28:03;2.03;;;1.67;;
20865;SDS011;10593;48.398;10.698;2022-07-29T12:30:35;2.20;;;1.63;;
20865;SDS011;10593;48.398;10.698;2022-07-29T12:35:50;1.60;;;1.50;;
20865;SDS011;10593;48.398;10.698;2022-07-29T12:38:19;1.70;;;1.60;;
20865;SDS011;10593;48.398;10.698;2022-07-29T12:40:46;2.93;;;1.50;;
20865;SDS011;10593;48.398;10.698;2022-07-29T12:43:14;1.60;;;1.50;;
20865;SDS011;10593;48.398;10.698;2022-07-29T12:45:47;1.77;;;1.60;;
20865;SDS011;10593;48.398;10.698;2022-07-29T12:48:32;1.63;;;1.50;;
20865;SDS011;10593;48.398;10.698;2022-07-29T12:51:03;1.57;;;1.47;;
20865;SDS011;10593;48.398;10.698;2022-07-29T12:53:31;1.60;;;1.50;;
20865;SDS011;10593;48.398;10.698;2022-07-29T12:55:58;1.43;;;1.33;;
20865;SDS011;10593;48.398;10.698;2022-07-29T12:58:30;1.93;;;1.57;;
20865;SDS011;10593;48.398;10.698;2022-07-29T13:01:11;1.40;;;1.30;;
20865;SDS011;10593;48.398;10.698;2022-07-29T13:03:53;1.77;;;1.67;;
20865;SDS011;10593;48.398;10.698;2022-07-29T13:09:11;3.33;;;1.40;;
20865;SDS011;10593;48.398;10.698;2022-07-29T13:11:47;2.50;;;1.50;;
20865;SDS011;10593;48.398;10.698;2022-07-29T13:17:07;1.50;;;1.40;;
20865;SDS011;10593;48.398;10.698;2022-07-29T13:19:43;4.53;;;1.40;;
20865;SDS011;10593;48.398;10.698;2022-07-29T13:22:13;1.20;;;1.20;;
20865;SDS011;10593;48.398;10.698;2022-07-29T13:25:01;1.40;;;1.30;;
20865;SDS011;10593;48.398;10.698;2022-07-29T13:27:28;1.63;;;1.53;;
20865;SDS011;10593;48.398;10.698;2022-07-29T13:30:00;5.83;;;1.70;;
20865;SDS011;10593;48.398;10.698;2022-07-29T13:32:29;1.20;;;1.20;;
20865;SDS011;10593;48.398;10.698;2022-07-29T13:34:57;1.50;;;1.40;;
20865;SDS011;10593;48.398;10.698;2022-07-29T13:37:25;1.70;;;1.20;;
20865;SDS011;10593;48.398;10.698;2022-07-29T13:39:54;1.23;;;1.13;;
20865;SDS011;10593;48.398;10.698;2022-07-29T13:42:23;1.20;;;1.20;;
20865;SDS011;10593;48.398;10.698;2022-07-29T13:44:49;1.30;;;1.20;;
20865;SDS011;10593;48.398;10.698;2022-07-29T13:47:16;1.53;;;1.43;;
20865;SDS011;10593;48.398;10.698;2022-07-29T13:49:46;1.10;;;1.10;;
20865;SDS011;10593;48.398;10.698;2022-07-29T13:52:12;1.17;;;1.17;;
20865;SDS011;10593;48.398;10.698;2022-07-29T13:54:38;1.30;;;1.20;;
20865;SDS011;10593;48.398;10.698;2022-07-29T13:57:04;1.63;;;1.53;;
20865;SDS011;10593;48.398;10.698;2022-07-29T13:59:29;2.50;;;1.27;;
20865;SDS011;10593;48.398;10.698;2022-07-29T14:01:55;2.37;;;1.40;;
20865;SDS011;10593;48.398;10.698;2022-07-29T14:04:21;2.43;;;1.40;;
20865;SDS011;10593;48.398;10.698;2022-07-29T14:06:48;1.60;;;1.50;;
20865;SDS011;10593;48.398;10.698;2022-07-29T14:09:14;1.30;;;1.30;;
20865;SDS011;10593;48.398;10.698;2022-07-29T14:11:40;1.60;;;1.53;;
20865;SDS011;10593;48.398;10.698;2022-07-29T14:14:06;1.50;;;1.40;;
20865;SDS011;10593;48.398;10.698;2022-07-29T14:16:32;1.20;;;1.20;;
20865;SDS011;10593;48.398;10.698;2022-07-29T14:18:58;1.80;;;1.60;;
20865;SDS011;10593;48.398;10.698;2022-07-29T14:21:24;3.37;;;1.60;;
20865;SDS011;10593;48.398;10.698;2022-07-29T14:23:50;1.67;;;1.40;;
20865;SDS011;10593;48.398;10.698;2022-07-29T14:26:17;4.97;;;1.40;;
20865;SDS011;10593;48.398;10.698;2022-07-29T14:28:42;2.40;;;1.40;;
20865;SDS011;10593;48.398;10.698;2022-07-29T14:31:09;1.57;;;1.47;;
20865;SDS011;10593;48.398;10.698;2022-07-29T14:33:35;2.50;;;1.40;;
20865;SDS011;10593;48.398;10.698;2022-07-29T14:36:00;1.37;;;1.30;;
20865;SDS011;10593;48.398;10.698;2022-07-29T14:38:26;1.57;;;1.50;;
20865;SDS011;10593;48.398;10.698;2022-07-29T14:40:52;1.73;;;1.60;;
20865;SDS011;10593;48.398;10.698;2022-07-29T14:43:17;1.90;;;1.80;;
20865;SDS011;10593;48.398;10.698;2022-07-29T14:45:43;2.63;;;1.97;;
20865;SDS011;10593;48.398;10.698;2022-07-29T14:48:09;1.70;;;1.60;;
20865;SDS011;10593;48.398;10.698;2022-07-29T14:50:36;1.57;;;1.47;;
20865;SDS011;10593;48.398;10.698;2022-07-29T14:53:02;1.80;;;1.70;;
20865;SDS011;10593;48.398;10.698;2022-07-29T14:55:28;1.80;;;1.70;;
20865;SDS011;10593;48.398;10.698;2022-07-29T14:57:54;3.30;;;2.20;;
20865;SDS011;10593;48.398;10.698;2022-07-29T15:00:20;1.73;;;1.63;;
20865;SDS011;10593;48.398;10.698;2022-07-29T15:02:46;1.70;;;1.60;;
20865;SDS011;10593;48.398;10.698;2022-07-29T15:05:13;1.70;;;1.60;;
20865;SDS011;10593;48.398;10.698;2022-07-29T15:07:39;1.53;;;1.40;;
20865;SDS011;10593;48.398;10.698;2022-07-29T15:10:05;2.13;;;1.73;;
20865;SDS011;10593;48.398;10.698;2022-07-29T15:12:31;8.83;;;2.70;;
20865;SDS011;10593;48.398;10.698;2022-07-29T15:14:58;2.37;;;2.03;;
20865;SDS011;10593;48.398;10.698;2022-07-29T15:17:24;2.23;;;2.03;;
20865;SDS011;10593;48.398;10.698;2022-07-29T15:19:50;1.33;;;1.33;;
20865;SDS011;10593;48.398;10.698;2022-07-29T15:22:16;2.57;;;1.50;;
20865;SDS011;10593;48.398;10.698;2022-07-29T15:24:42;1.60;;;1.50;;
20865;SDS011;10593;48.398;10.698;2022-07-29T15:27:09;1.80;;;1.50;;
20865;SDS011;10593;48.398;10.698;2022-07-29T15:29:39;1.40;;;1.40;;
20865;SDS011;10593;48.398;10.698;2022-07-29T15:32:06;3.00;;;1.60;;
20865;SDS011;10593;48.398;10.698;2022-07-29T15:34:32;1.60;;;1.50;;
20865;SDS011;10593;48.398;10.698;2022-07-29T15:36:59;1.27;;;1.27;;
20865;SDS011;10593;48.398;10.698;2022-07-29T15:39:25;1.20;;;1.20;;
20865;SDS011;10593;48.398;10.698;2022-07-29T15:41:51;1.37;;;1.27;;
20865;SDS011;10593;48.398;10.698;2022-07-29T15:44:17;1.60;;;1.50;;
20865;SDS011;10593;48.398;10.698;2022-07-29T15:46:44;1.50;;;1.40;;
20865;SDS011;10593;48.398;10.698;2022-07-29T15:49:29;1.73;;;1.30;;